Time;durP1;ratioP1;P1;durP2;ratioP2;P2;SDS_P1;SDS_P2;PMS_P1;PMS_P2;Temp;Humidity;BMP_temperature;BMP_pressure;BME280_temperature;BME280_humidity;BME280_pressure;Samples;Min_cycle;Max_cycle;Signal;HPM_P1;HPM_P2
2022/09/06 00:00:41;;;;;;;5.97;2.33;;;;;;;13.27;100.00;99769.00;4293846;33;20068;-68
2022/09/06 00:03:08;;;;;;;7.75;2.47;;;;;;;13.32;100.00;99770.94;4265808;33;20412;-68
2022/09/06 00:05:35;;;;;;;3.47;1.92;;;;;;;12.75;100.00;99707.16;4286627;33;20025;-68
2022/09/06 00:08:04;;;;;;;9.60;2.05;;;;;;;13.06;100.00;99773.28;4317328;33;20074;-68
2022/09/06 00:10:32;;;;;;;3.00;2.12;;;;;;;12.85;100.00;99738.91;4337394;33;20055;-68
2022/09/06 00:13:06;;;;;;;4.15;2.03;;;;;;;13.18;100.00;99775.06;4338743;33;20024;-68
2022/09/06 00:15:33;;;;;;;6.20;1.87;;;;;;;13.25;100.00;99743.25;4338684;33;20393;-68
2022/09/06 00:18:01;;;;;;;7.60;2.12;;;;;;;13.06;100.00;99764.34;4338838;33;20075;-68
2022/09/06 00:20:28;;;;;;;7.85;2.65;;;;;;;12.99;100.00;99744.81;4379508;32;20030;-68
2022/09/06 00:23:00;;;;;;;3.10;1.87;;;;;;;13.03;100.00;99762.97;4382866;32;20069;-69
2022/09/06 00:25:28;;;;;;;10.30;1.73;;;;;;;12.52;100.00;99721.63;4375059;32;20050;-69
2022/09/06 00:27:59;;;;;;;13.60;2.53;;;;;;;12.95;100.00;99755.28;4382984;32;20065;-68
2022/09/06 00:30:26;;;;;;;7.30;2.20;;;;;;;13.03;100.00;99762.97;4384681;32;20061;-68
2022/09/06 00:32:54;;;;;;;5.43;2.55;;;;;;;12.27;100.00;99674.25;4384696;32;20061;-68
2022/09/06 00:35:23;;;;;;;2.92;1.62;;;;;;;13.06;100.00;99765.16;4411209;32;20095;-74
2022/09/06 00:37:54;;;;;;;7.57;2.15;;;;;;;13.08;100.00;99765.75;4414940;32;20046;-68
2022/09/06 00:40:20;;;;;;;4.22;2.22;;;;;;;13.17;100.00;99752.62;4431571;32;20111;-68
2022/09/06 00:42:47;;;;;;;6.72;2.08;;;;;;;12.93;100.00;99762.00;4431891;32;20064;-68
2022/09/06 00:45:21;;;;;;;6.87;1.92;;;;;;;12.82;100.00;99740.22;4432438;32;20073;-73
2022/09/06 00:47:47;;;;;;;2.67;2.12;;;;;;;12.56;100.00;99746.28;4434046;32;20030;-68
2022/09/06 00:50:17;;;;;;;3.33;2.22;;;;;;;12.78;100.00;99743.66;4445214;32;20087;-68
2022/09/06 00:52:45;;;;;;;5.87;2.40;;;;;;;12.90;100.00;99750.59;4431031;32;20038;-68
2022/09/06 00:55:12;;;;;;;3.97;2.17;;;;;;;12.99;100.00;99756.44;4385477;32;20035;-68
2022/09/06 00:57:39;;;;;;;10.38;2.50;;;;;;;12.85;100.00;99744.31;4368319;32;20039;-68
2022/09/06 01:00:07;;;;;;;2.22;1.87;;;;;;;12.76;100.00;99753.91;4372142;32;20085;-68
2022/09/06 01:02:33;;;;;;;2.85;1.98;;;;;;;12.68;100.00;99715.44;4365172;32;20031;-68
2022/09/06 01:05:01;;;;;;;4.40;1.85;;;;;;;12.59;100.00;99708.81;4356800;32;20036;-68
2022/09/06 01:08:01;;;;;;;1.58;1.48;;;;;;;12.80;100.00;99719.94;4371891;32;20445;-71
2022/09/06 01:10:48;;;;;;;2.55;2.22;;;;;;;13.06;100.00;99758.94;4378676;32;20031;-68
2022/09/06 01:13:20;;;;;;;4.28;2.30;;;;;;;12.97;100.00;99726.13;4376665;32;20110;-67
2022/09/06 01:16:05;;;;;;;;;;;;;;;12.65;100.00;99724.03;4372117;32;20039;-68
2022/09/06 01:18:40;;;;;;;4.72;2.12;;;;;;;13.06;100.00;99767.88;4370943;32;19938;-69
2022/09/06 01:21:48;;;;;;;5.12;2.45;;;;;;;13.02;100.00;99761.34;4385682;32;20491;-68
2022/09/06 01:24:52;;;;;;;6.32;2.53;;;;;;;12.57;100.00;99764.13;4376366;32;20531;-68
2022/09/06 01:27:24;;;;;;;6.43;2.35;;;;;;;12.98;100.00;99756.66;4383385;32;20053;-68
2022/09/06 01:30:04;;;;;;;7.93;2.72;;;;;;;12.87;100.00;99763.78;4415105;32;20030;-68
2022/09/06 01:32:49;;;;;;;2.72;1.95;;;;;;;12.37;100.00;99772.72;4426703;32;20029;-68
2022/09/06 01:35:32;;;;;;;3.00;2.45;;;;;;;12.39;100.00;99765.19;4431929;32;20467;-69
2022/09/06 01:38:00;;;;;;;6.20;2.47;;;;;;;12.51;100.00;99757.84;4431278;32;20073;-69
2022/09/06 01:40:27;;;;;;;4.05;2.45;;;;;;;12.13;100.00;99721.53;4377653;32;20035;-68
2022/09/06 01:42:56;;;;;;;10.68;2.30;;;;;;;12.22;100.00;99728.19;4377362;32;20124;-69
2022/09/06 01:45:36;;;;;;;4.65;2.25;;;;;;;12.31;100.00;99767.22;4356356;32;20055;-69
2022/09/06 01:48:40;;;;;;;11.90;2.47;;;;;;;12.20;100.00;99759.19;4353821;32;20058;-74
2022/09/06 01:51:25;;;;;;;3.05;2.37;;;;;;;12.22;100.00;99760.59;4356380;32;20066;-69
2022/09/06 01:54:18;;;;;;;11.20;3.60;;;;;;;12.39;100.00;99757.09;4356301;32;20426;-69
2022/09/06 01:56:44;;;;;;;;;;;;;;;12.49;100.00;99762.66;4356746;32;20430;-69
2022/09/06 01:59:18;;;;;;;5.93;2.87;;;;;;;12.60;100.00;99753.66;4366155;32;19966;-69
2022/09/06 02:02:10;;;;;;;7.55;2.50;;;;;;;12.20;100.00;99754.59;4371331;32;20031;-68
2022/09/06 02:04:48;;;;;;;11.05;2.53;;;;;;;12.48;100.00;99753.72;4369948;32;20110;-73
2022/09/06 02:07:22;;;;;;;9.07;1.87;;;;;;;12.42;100.00;99751.19;4392565;32;20027;-71
2022/09/06 02:09:55;;;;;;;12.75;2.53;;;;;;;12.20;100.00;99754.59;4381004;32;20042;-69
2022/09/06 02:12:25;;;;;;;7.62;2.80;;;;;;;12.10;100.00;99759.81;4419310;32;20081;-69
2022/09/06 02:14:59;;;;;;;15.10;3.25;;;;;;;11.95;100.00;99750.37;4422555;32;20060;-69
2022/09/06 02:17:31;;;;;;;5.43;2.92;;;;;;;11.81;100.00;99713.91;4416764;32;20108;-69
2022/09/06 02:20:22;;;;;;;4.32;2.33;;;;;;;12.12;100.00;99752.28;4398653;32;20064;-74
2022/09/06 02:22:51;;;;;;;6.10;2.50;;;;;;;12.10;100.00;99743.63;4407913;32;20368;-68
2022/09/06 02:25:25;;;;;;;7.90;1.92;;;;;;;11.95;100.00;99750.37;4416356;32;20068;-68
2022/09/06 02:27:52;;;;;;;8.10;2.10;;;;;;;11.92;100.00;99740.06;4430778;32;20048;-68
2022/09/06 02:30:19;;;;;;;18.60;2.62;;;;;;;11.88;100.00;99738.84;4400792;32;20413;-68
2022/09/06 02:32:55;;;;;;;4.07;2.58;;;;;;;11.79;100.00;99759.19;4400635;32;20034;-68
2022/09/06 02:35:22;;;;;;;4.40;2.62;;;;;;;11.76;100.00;99717.31;4394316;32;20068;-72
2022/09/06 02:37:49;;;;;;;3.60;2.60;;;;;;;11.59;100.00;99711.06;4373842;32;20043;-67
2022/09/06 02:40:15;;;;;;;6.20;2.80;;;;;;;11.58;100.00;99715.62;4386629;32;20031;-68
2022/09/06 02:42:41;;;;;;;5.97;2.92;;;;;;;11.49;100.00;99722.47;4396846;32;20031;-67
2022/09/06 02:45:08;;;;;;;10.52;3.40;;;;;;;11.61;100.00;99703.53;4383374;32;20027;-69
2022/09/06 02:47:34;;;;;;;5.90;2.90;;;;;;;11.72;100.00;99742.31;4385374;32;20559;-68
2022/09/06 02:50:01;;;;;;;4.32;2.83;;;;;;;11.44;100.00;99731.25;4385982;32;20038;-68
2022/09/06 02:52:27;;;;;;;10.25;2.87;;;;;;;11.42;100.00;99697.50;4399585;32;20046;-68
2022/09/06 02:54:54;;;;;;;3.70;2.62;;;;;;;11.69;100.00;99732.00;4400775;32;20034;-68
2022/09/06 02:57:20;;;;;;;7.70;2.17;;;;;;;11.45;100.00;99699.72;4399499;32;20053;-68
2022/09/06 02:59:46;;;;;;;5.87;3.08;;;;;;;11.42;100.00;99729.84;4411266;32;20033;-68
2022/09/06 03:02:13;;;;;;;10.25;2.92;;;;;;;11.25;100.00;99697.44;4438837;32;20037;-68
2022/09/06 03:04:40;;;;;;;5.12;2.70;;;;;;;11.41;100.00;99728.22;4434839;32;20078;-68
2022/09/06 03:07:06;;;;;;;13.62;2.37;;;;;;;11.20;100.00;99692.75;4435043;32;20042;-68
2022/09/06 03:09:32;;;;;;;5.03;2.22;;;;;;;11.52;100.00;99722.00;4445746;32;20059;-69
2022/09/06 03:11:59;;;;;;;13.00;3.12;;;;;;;11.25;100.00;99665.91;4456293;32;20053;-69
2022/09/06 03:14:25;;;;;;;5.45;2.67;;;;;;;11.66;100.00;99698.22;4463865;32;20415;-68
2022/09/06 03:16:51;;;;;;;7.37;2.47;;;;;;;11.73;100.00;99731.28;4463941;32;20071;-68
2022/09/06 03:19:18;;;;;;;8.18;3.08;;;;;;;11.57;100.00;99697.81;4464022;32;20037;-68
2022/09/06 03:21:45;;;;;;;3.42;2.58;;;;;;;11.45;100.00;99705.09;4461722;32;20033;-69
2022/09/06 03:24:11;;;;;;;5.43;2.58;;;;;;;11.31;100.00;99687.56;4446520;32;20037;-68
2022/09/06 03:26:37;;;;;;;3.65;2.75;;;;;;;11.58;100.00;99729.13;4445627;32;20048;-69
2022/09/06 03:29:03;;;;;;;8.73;2.92;;;;;;;11.26;100.00;99694.50;4445200;32;20168;-69
2022/09/06 03:31:37;;;;;;;3.22;2.83;;;;;;;11.31;100.00;99719.91;4444162;32;20029;-68
2022/09/06 03:34:03;;;;;;;6.95;3.10;;;;;;;11.39;100.00;99714.16;4444648;32;20370;-68
2022/09/06 03:36:29;;;;;;;11.63;2.55;;;;;;;11.15;100.00;99684.53;4445330;32;20095;-68
2022/09/06 03:38:56;;;;;;;11.12;4.15;;;;;;;11.05;100.00;99684.34;4445189;32;20051;-68
2022/09/06 03:41:22;;;;;;;7.03;3.12;;;;;;;10.87;100.00;99678.03;4443991;32;20041;-68
2022/09/06 03:43:48;;;;;;;4.60;2.10;;;;;;;10.88;100.00;99674.28;4446150;32;20067;-67
2022/09/06 03:46:15;;;;;;;2.85;2.50;;;;;;;10.51;100.00;99666.47;4445724;32;20045;-69
2022/09/06 03:48:41;;;;;;;5.30;2.90;;;;;;;10.84;100.00;99683.88;4444782;32;20081;-68
2022/09/06 03:51:07;;;;;;;6.10;3.05;;;;;;;10.97;100.00;99703.56;4397497;32;20022;-70
2022/09/06 03:53:33;;;;;;;4.55;2.92;;;;;;;10.99;100.00;99718.44;4399017;32;20030;-68
2022/09/06 03:56:00;;;;;;;4.70;2.70;;;;;;;10.98;100.00;99710.59;4412236;32;20031;-68
2022/09/06 03:58:31;;;;;;;3.53;2.55;;;;;;;11.09;100.00;99723.25;4415320;32;20057;-68
2022/09/06 04:01:05;;;;;;;6.32;3.17;;;;;;;10.99;100.00;99696.06;4369092;32;20128;-68
2022/09/06 04:03:32;;;;;;;6.22;2.65;;;;;;;11.25;100.00;99719.00;4378033;32;20065;-68
2022/09/06 04:05:58;;;;;;;5.32;2.70;;;;;;;10.87;100.00;99710.34;4357463;32;20077;-69
2022/09/06 04:08:25;;;;;;;8.55;2.33;;;;;;;10.83;100.00;99714.59;4353547;33;20380;-68
2022/09/06 04:10:54;;;;;;;5.03;3.50;;;;;;;10.95;100.00;99713.75;4368302;32;20032;-68
2022/09/06 04:13:22;;;;;;;10.10;2.53;;;;;;;10.45;100.00;99632.38;4368237;32;20049;-74
2022/09/06 04:15:48;;;;;;;9.50;3.00;;;;;;;10.87;100.00;99715.75;4368488;32;20051;-69
2022/09/06 04:18:15;;;;;;;8.60;3.03;;;;;;;10.87;100.00;99704.97;4365644;32;20389;-68
2022/09/06 04:20:43;;;;;;;4.20;2.83;;;;;;;10.56;100.00;99678.38;4367603;32;20053;-68
2022/09/06 04:23:10;;;;;;;6.32;3.20;;;;;;;10.80;100.00;99682.72;4370343;32;20053;-73
2022/09/06 04:25:36;;;;;;;7.28;2.90;;;;;;;10.93;100.00;99713.16;4372090;32;20429;-69
2022/09/06 04:28:03;;;;;;;5.03;2.65;;;;;;;10.93;100.00;99697.00;4387500;32;20050;-68
2022/09/06 04:30:35;;;;;;;11.35;2.60;;;;;;;10.89;100.00;99707.44;4386750;32;20388;-68
2022/09/06 04:33:02;;;;;;;4.82;3.00;;;;;;;10.89;100.00;99716.31;4387094;32;20380;-73
2022/09/06 04:35:28;;;;;;;4.93;2.80;;;;;;;10.64;100.00;99672.66;4354045;32;20025;-68
2022/09/06 04:37:54;;;;;;;7.75;2.97;;;;;;;10.75;100.00;99677.22;4380280;32;20046;-68
2022/09/06 04:40:21;;;;;;;4.68;2.62;;;;;;;11.05;100.00;99722.06;4387520;32;20482;-68
2022/09/06 04:42:47;;;;;;;11.85;2.72;;;;;;;11.07;100.00;99709.16;4387387;32;20357;-69
2022/09/06 04:45:13;;;;;;;4.45;2.92;;;;;;;10.64;100.00;99678.03;4386256;32;20040;-75
2022/09/06 04:47:40;;;;;;;5.90;3.53;;;;;;;11.15;100.00;99710.69;4386613;32;20087;-69
2022/09/06 04:50:07;;;;;;;10.20;3.03;;;;;;;11.17;100.00;99717.50;4385566;32;20019;-68
2022/09/06 04:52:33;;;;;;;11.43;4.18;;;;;;;11.29;100.00;99719.34;4357097;32;20020;-69
2022/09/06 04:54:59;;;;;;;6.18;3.10;;;;;;;10.75;100.00;99647.56;4388989;32;20039;-69
2022/09/06 04:57:26;;;;;;;6.28;2.72;;;;;;;11.37;100.00;99710.87;4399977;32;20030;-70
2022/09/06 04:59:52;;;;;;;7.25;2.72;;;;;;;11.15;100.00;99673.75;4401820;32;20086;-69
2022/09/06 05:02:19;;;;;;;18.05;3.37;;;;;;;11.45;100.00;99710.50;4401808;32;20057;-69
2022/09/06 05:04:45;;;;;;;8.82;2.78;;;;;;;11.31;100.00;99715.34;4402100;32;20198;-69
2022/09/06 05:07:11;;;;;;;7.00;2.40;;;;;;;11.37;100.00;99718.97;4441143;32;20424;-70
2022/09/06 05:09:37;;;;;;;5.60;3.10;;;;;;;11.36;100.00;99676.88;4464994;32;20045;-69
2022/09/06 05:12:04;;;;;;;11.27;3.37;;;;;;;11.74;100.00;99713.22;4465327;32;20059;-69
2022/09/06 05:14:30;;;;;;;8.43;2.67;;;;;;;11.81;100.00;99713.91;4465609;32;20382;-69
2022/09/06 05:17:04;;;;;;;9.45;2.65;;;;;;;11.67;100.00;99696.37;4474315;32;20397;-69
2022/09/06 05:19:30;;;;;;;3.78;2.83;;;;;;;11.73;100.00;99663.84;4463937;32;20029;-68
2022/09/06 05:21:56;;;;;;;4.97;3.22;;;;;;;12.19;100.00;99715.16;4466724;32;20083;-69
2022/09/06 05:24:23;;;;;;;8.02;2.53;;;;;;;11.79;100.00;99664.75;4465262;32;20063;-69
2022/09/06 05:26:49;;;;;;;8.57;3.03;;;;;;;12.10;100.00;99713.94;4461271;32;20398;-68
2022/09/06 05:29:15;;;;;;;8.75;2.97;;;;;;;12.05;100.00;99682.25;4449010;32;20037;-70
2022/09/06 05:31:42;;;;;;;7.25;3.28;;;;;;;12.53;100.00;99715.19;4461812;32;20425;-68
2022/09/06 05:34:09;;;;;;;9.30;2.72;;;;;;;12.50;100.00;99726.47;4462405;32;20026;-68
2022/09/06 05:36:37;;;;;;;10.52;3.08;;;;;;;12.74;100.00;99727.13;4460939;32;20029;-68
2022/09/06 05:39:03;;;;;;;10.27;2.78;;;;;;;12.86;100.00;99718.91;4462649;32;20053;-68
2022/09/06 05:41:31;;;;;;;4.55;2.70;;;;;;;12.89;100.00;99680.56;4461433;32;20038;-71
2022/09/06 05:43:57;;;;;;;12.57;3.10;;;;;;;12.72;100.00;99675.22;4461274;32;20042;-69
2022/09/06 05:46:30;;;;;;;14.60;3.08;;;;;;;12.53;100.00;99671.97;4447000;32;20087;-69
2022/09/06 05:49:06;;;;;;;4.93;3.00;;;;;;;13.30;100.00;99718.97;4446917;32;20021;-72
2022/09/06 05:51:33;;;;;;;9.00;2.97;;;;;;;13.05;100.00;99651.88;4396004;32;20465;-72
2022/09/06 05:53:59;;;;;;;3.17;2.20;;;;;;;13.27;100.00;99722.19;4367785;32;20113;-72
2022/09/06 05:56:25;;;;;;;6.75;2.55;;;;;;;13.60;100.00;99728.59;4369162;32;20048;-71
2022/09/06 05:58:52;;;;;;;10.18;3.03;;;;;;;13.56;100.00;99722.03;4354367;32;20453;-72
2022/09/06 06:01:21;;;;;;;10.63;3.12;;;;;;;13.25;100.00;99725.16;4353233;32;20130;-70
2022/09/06 06:03:53;;;;;;;7.37;2.92;;;;;;;13.54;100.00;99713.38;4350110;33;20052;-71
2022/09/06 06:06:20;;;;;;;11.05;2.70;;;;;;;13.48;100.00;99727.91;4355869;32;20061;-69
2022/09/06 06:08:47;;;;;;;8.13;2.35;;;;;;;13.83;100.00;99726.69;4356201;32;20054;-70
2022/09/06 06:11:14;;;;;;;13.85;3.25;;;;;;;13.89;100.00;99714.84;4344373;32;20040;-71
2022/09/06 06:13:42;;;;;;;22.70;3.20;;;;;;;13.91;100.00;99715.38;4324152;33;20094;-72
2022/09/06 06:16:11;;;;;;;8.52;2.28;;;;;;;13.88;100.00;99696.94;4326219;33;20178;-71
2022/09/06 06:18:38;;;;;;;17.83;3.20;;;;;;;14.02;100.00;99735.28;4325023;33;20036;-71
2022/09/06 06:21:08;;;;;;;6.87;2.65;;;;;;;14.32;100.00;99735.56;4325010;33;20139;-71
2022/09/06 06:23:35;;;;;;;5.10;3.30;;;;;;;13.82;100.00;99623.00;4304637;33;20074;-69
2022/09/06 06:26:02;;;;;;;8.43;2.40;;;;;;;14.25;100.00;99726.00;4298902;33;20079;-71
2022/09/06 06:28:28;;;;;;;10.00;3.67;;;;;;;14.03;100.00;99707.94;4295977;33;20437;-70
2022/09/06 06:30:54;;;;;;;5.78;2.85;;;;;;;14.32;100.00;99740.97;4297178;33;20029;-71
2022/09/06 06:33:21;;;;;;;6.15;2.80;;;;;;;14.12;100.00;99687.44;4308433;33;20496;-72
2022/09/06 06:36:03;;;;;;;6.72;2.92;;;;;;;14.34;100.00;99721.75;4309468;33;20041;-71
2022/09/06 06:38:38;;;;;;;11.50;3.17;;;;;;;14.41;100.00;99716.12;4324575;33;20054;-71
2022/09/06 06:41:06;;;;;;;4.40;2.47;;;;;;;14.42;100.00;99702.31;4315320;33;20069;-71
2022/09/06 06:43:37;;;;;;;9.38;2.83;;;;;;;14.56;100.00;99734.41;4310756;33;20109;-71
2022/09/06 06:46:03;;;;;;;13.32;2.62;;;;;;;14.24;100.00;99702.72;4325753;33;20040;-70
2022/09/06 06:48:30;;;;;;;7.12;3.30;;;;;;;14.52;100.00;99707.84;4325722;33;20418;-71
2022/09/06 06:50:57;;;;;;;4.75;2.40;;;;;;;14.68;100.00;99710.69;4339338;33;20043;-70
2022/09/06 06:53:24;;;;;;;7.43;2.15;;;;;;;14.76;100.00;99718.34;4323990;33;20054;-72
2022/09/06 06:55:50;;;;;;;2.90;2.08;;;;;;;14.85;100.00;99738.47;4368202;32;20340;-70
2022/09/06 06:58:18;;;;;;;2.87;2.50;;;;;;;14.83;100.00;99702.66;4384769;32;20027;-70
2022/09/06 07:00:44;;;;;;;6.55;2.80;;;;;;;14.64;100.00;99644.53;4354892;32;20028;-71
2022/09/06 07:03:11;;;;;;;4.32;2.37;;;;;;;15.31;100.00;99723.53;4354896;32;20096;-71
2022/09/06 07:05:41;;;;;;;3.22;2.10;;;;;;;15.52;100.00;99746.16;4337248;32;20036;-71
2022/09/06 07:08:09;;;;;;;10.07;2.40;;;;;;;15.43;100.00;99743.13;4340151;33;20058;-71
2022/09/06 07:10:35;;;;;;;7.60;3.00;;;;;;;15.51;100.00;99739.06;4339217;33;20048;-70
2022/09/06 07:13:02;;;;;;;5.60;2.50;;;;;;;15.34;100.00;99709.44;4354021;32;20031;-70
2022/09/06 07:15:28;;;;;;;14.05;3.03;;;;;;;15.35;100.00;99703.75;4338696;33;20366;-71
2022/09/06 07:17:55;;;;;;;8.15;2.17;;;;;;;15.48;100.00;99751.28;4319687;33;20132;-70
2022/09/06 07:20:24;;;;;;;3.20;2.10;;;;;;;15.50;100.00;99748.31;4324715;33;20024;-71
2022/09/06 07:23:03;;;;;;;8.95;2.12;;;;;;;15.65;100.00;99755.69;4325820;33;20071;-72
2022/09/06 07:25:31;;;;;;;3.20;2.30;;;;;;;15.96;100.00;99756.66;4350963;32;20073;-73
2022/09/06 07:28:07;;;;;;;4.80;2.50;;;;;;;15.76;100.00;99722.06;4340445;33;20145;-71
2022/09/06 07:30:36;;;;;;;2.05;1.87;;;;;;;15.84;100.00;99721.56;4324161;33;20044;-70
2022/09/06 07:33:05;;;;;;;3.78;2.17;;;;;;;15.62;100.00;99725.28;4339043;33;20066;-71
2022/09/06 07:35:32;;;;;;;8.13;1.90;;;;;;;15.70;100.00;99698.69;4337820;33;20370;-71
2022/09/06 07:38:00;;;;;;;4.28;2.85;;;;;;;16.20;100.00;99756.97;4325884;33;20037;-72
2022/09/06 07:40:29;;;;;;;6.75;2.50;;;;;;;16.05;100.00;99762.38;4309825;33;20033;-71
2022/09/06 07:42:58;;;;;;;6.45;2.62;;;;;;;16.22;100.00;99724.09;4309751;33;20113;-71
2022/09/06 07:45:25;;;;;;;5.72;2.00;;;;;;;16.37;100.00;99734.16;4280229;33;20067;-72
2022/09/06 07:47:57;;;;;;;3.17;2.28;;;;;;;16.29;100.00;99755.38;4296655;33;20264;-71
2022/09/06 07:50:24;;;;;;;3.92;2.35;;;;;;;16.58;100.00;99714.06;4296510;33;20199;-71
2022/09/06 07:52:51;;;;;;;4.32;1.77;;;;;;;16.96;100.00;99763.56;4297253;33;20044;-71
2022/09/06 07:55:17;;;;;;;6.37;1.60;;;;;;;16.63;100.00;99724.13;4296597;33;20051;-72
2022/09/06 07:57:43;;;;;;;4.55;2.42;;;;;;;16.94;100.00;99749.41;4318388;33;20629;-72
2022/09/06 08:00:11;;;;;;;5.90;2.30;;;;;;;16.88;100.00;99750.50;4326752;33;20100;-70
2022/09/06 08:02:39;;;;;;;5.45;1.58;;;;;;;16.70;100.00;99755.41;4328435;33;20024;-71
2022/09/06 08:05:06;;;;;;;6.12;1.70;;;;;;;16.79;100.00;99725.72;4367933;32;20031;-72
2022/09/06 08:07:32;;;;;;;5.53;1.80;;;;;;;16.94;100.00;99748.59;4369766;32;20036;-71
2022/09/06 08:09:59;;;;;;;2.92;1.98;;;;;;;17.10;100.00;99757.53;4372715;32;20050;-70
2022/09/06 08:12:26;;;;;;;1.95;1.40;;;;;;;16.67;100.00;99758.66;4358535;32;20057;-71
2022/09/06 08:14:53;;;;;;;1.40;1.25;;;;;;;17.08;100.00;99757.00;4395575;32;20053;-71
2022/09/06 08:17:19;;;;;;;2.40;1.73;;;;;;;17.04;97.52;99754.00;4403171;32;20053;-71
2022/09/06 08:19:45;;;;;;;3.42;1.98;;;;;;;17.14;91.60;99720.53;4400779;32;20072;-71
2022/09/06 08:22:12;;;;;;;10.25;1.50;;;;;;;16.94;96.52;99716.75;4401364;32;20195;-72
2022/09/06 08:24:38;;;;;;;3.95;1.52;;;;;;;16.96;100.00;99727.37;4414903;32;20052;-72
2022/09/06 08:27:06;;;;;;;2.50;1.35;;;;;;;17.10;93.53;99743.94;4417767;32;20424;-71
2022/09/06 08:29:34;;;;;;;2.17;1.00;;;;;;;17.04;90.11;99711.31;4418005;32;20042;-71
2022/09/06 08:32:00;;;;;;;4.75;1.23;;;;;;;17.37;90.81;99755.28;4425076;32;20026;-71
2022/09/06 08:34:27;;;;;;;5.20;1.23;;;;;;;16.82;92.26;99659.13;4418007;32;20440;-71
2022/09/06 08:36:53;;;;;;;13.93;1.50;;;;;;;17.61;93.92;99743.75;4386131;32;20055;-71
2022/09/06 08:39:19;;;;;;;6.72;1.30;;;;;;;17.45;93.75;99747.66;4386838;32;20436;-71
2022/09/06 08:42:04;;;;;;;18.87;2.40;;;;;;;17.41;95.95;99745.47;4386938;32;20061;-72
2022/09/06 08:44:42;;;;;;;3.30;1.52;;;;;;;17.51;96.64;99752.78;4387578;32;20376;-71
2022/09/06 08:47:13;;;;;;;3.80;1.30;;;;;;;17.82;97.09;99749.94;4372259;32;20189;-71
2022/09/06 08:49:44;;;;;;;3.35;1.62;;;;;;;17.71;89.95;99748.34;4370769;32;20065;-73
2022/09/06 08:52:36;;;;;;;9.75;1.73;;;;;;;17.82;89.05;99747.19;4372545;32;20086;-71
2022/09/06 08:55:23;;;;;;;6.87;1.15;;;;;;;17.90;89.23;99748.56;4368471;32;20030;-73
2022/09/06 08:58:21;;;;;;;7.05;1.50;;;;;;;18.17;85.63;99747.31;4357367;32;20109;-70
2022/09/06 09:00:57;;;;;;;4.90;1.45;;;;;;;18.42;88.51;99744.41;4355904;32;20566;-70
2022/09/06 09:03:30;;;;;;;11.75;3.08;;;;;;;18.36;89.13;99707.38;4356973;32;20062;-70
2022/09/06 09:05:58;;;;;;;4.45;1.23;;;;;;;18.60;84.56;99731.19;4356098;32;20359;-70
2022/09/06 09:08:32;;;;;;;5.22;1.33;;;;;;;18.30;71.61;99731.16;4355602;32;20039;-70
2022/09/06 09:11:05;;;;;;;0.95;0.95;;;;;;;18.43;82.55;99728.88;4357857;32;20332;-70
2022/09/06 09:13:42;;;;;;;3.20;1.20;;;;;;;18.43;84.03;99702.44;4375655;32;20024;-71
2022/09/06 09:16:09;;;;;;;13.57;1.65;;;;;;;18.49;71.39;99728.56;4384845;32;20046;-70
2022/09/06 09:18:37;;;;;;;20.27;1.80;;;;;;;18.19;72.63;99724.16;4386790;32;20043;-70
2022/09/06 09:21:04;;;;;;;3.72;0.98;;;;;;;18.67;73.15;99712.59;4386536;32;20028;-69
2022/09/06 09:23:31;;;;;;;1.00;1.00;;;;;;;18.26;61.47;99681.03;4386666;32;20046;-69
2022/09/06 09:26:03;;;;;;;2.15;1.17;;;;;;;18.51;63.73;99720.91;4386621;32;20039;-71
2022/09/06 09:28:30;;;;;;;5.55;0.98;;;;;;;18.35;69.64;99683.97;4389204;32;20026;-69
2022/09/06 09:30:57;;;;;;;1.62;1.50;;;;;;;18.33;67.95;99699.78;4402101;32;20043;-70
2022/09/06 09:33:34;;;;;;;5.25;1.55;;;;;;;18.12;66.33;99686.28;4401945;32;20026;-69
2022/09/06 09:36:06;;;;;;;6.10;1.30;;;;;;;18.74;68.29;99706.78;4399097;32;20030;-70
2022/09/06 09:38:41;;;;;;;2.50;1.20;;;;;;;18.76;62.99;99642.66;4386691;32;20489;-69
2022/09/06 09:41:09;;;;;;;4.28;2.15;;;;;;;19.11;62.24;99700.69;4387007;32;20073;-69
2022/09/06 09:43:39;;;;;;;0.90;0.90;;;;;;;18.93;63.24;99666.00;4353698;32;20032;-70
2022/09/06 09:46:08;;;;;;;1.35;1.25;;;;;;;19.36;63.37;99696.06;4356856;32;20181;-69
2022/09/06 09:48:35;;;;;;;3.17;1.25;;;;;;;19.07;61.32;99683.28;4371663;32;20040;-70
2022/09/06 09:51:18;;;;;;;5.60;1.00;;;;;;;19.36;63.05;99685.94;4378466;32;20027;-71
2022/09/06 09:54:09;;;;;;;1.08;1.08;;;;;;;19.17;59.11;99688.63;4399387;32;20069;-71
2022/09/06 09:56:50;;;;;;;7.30;1.35;;;;;;;19.35;56.93;99684.34;4386477;32;20035;-70
2022/09/06 09:59:41;;;;;;;1.40;1.02;;;;;;;19.28;62.06;99677.59;4384298;32;20080;-70
2022/09/06 10:02:22;;;;;;;3.92;0.90;;;;;;;18.87;57.64;99678.84;4386263;32;20388;-71
2022/09/06 10:04:52;;;;;;;1.10;1.00;;;;;;;19.24;56.35;99678.19;4384629;32;20413;-71
2022/09/06 10:07:21;;;;;;;1.20;1.10;;;;;;;19.27;61.30;99675.97;4386452;32;20181;-71
2022/09/06 10:10:19;;;;;;;4.50;1.42;;;;;;;19.60;60.34;99677.69;4384678;32;20338;-70
2022/09/06 10:12:45;;;;;;;6.45;1.10;;;;;;;19.82;60.30;99670.88;4353995;32;20047;-71
2022/09/06 10:15:32;;;;;;;4.80;1.10;;;;;;;19.57;61.84;99675.56;4360557;32;20413;-70
2022/09/06 10:17:59;;;;;;;1.75;1.27;;;;;;;20.01;64.00;99667.31;4371178;32;20050;-71
2022/09/06 10:20:35;;;;;;;2.62;1.05;;;;;;;19.60;57.97;99641.38;4367494;32;20392;-74
2022/09/06 10:23:08;;;;;;;4.30;1.20;;;;;;;19.73;56.32;99623.44;4340333;33;20421;-71
2022/09/06 10:25:37;;;;;;;4.68;1.05;;;;;;;19.65;55.90;99632.31;4325363;33;20021;-73
2022/09/06 10:28:22;;;;;;;5.70;1.17;;;;;;;20.30;55.52;99657.00;4336049;33;20062;-70
2022/09/06 10:31:09;;;;;;;1.70;1.00;;;;;;;20.35;55.08;99652.56;4339418;33;20036;-72
2022/09/06 10:34:00;;;;;;;1.60;1.05;;;;;;;20.38;53.14;99655.53;4340525;33;20063;-70
2022/09/06 10:36:54;;;;;;;2.15;1.20;;;;;;;19.83;53.76;99653.38;4340577;33;20020;-71
2022/09/06 10:39:52;;;;;;;1.35;0.82;;;;;;;20.20;56.82;99649.00;4337527;33;20142;-76
2022/09/06 10:42:37;;;;;;;0.90;0.90;;;;;;;20.09;54.37;99636.59;4326408;33;20090;-70
2022/09/06 10:45:26;;;;;;;2.05;1.20;;;;;;;19.86;51.81;99627.37;4325237;33;20489;-71
2022/09/06 10:48:10;;;;;;;2.20;1.02;;;;;;;20.39;55.60;99635.28;4353870;32;20036;-70
2022/09/06 10:50:43;;;;;;;1.23;0.80;;;;;;;20.20;52.45;99648.16;4355452;32;20048;-70
2022/09/06 10:53:32;;;;;;;;;;;;;;;20.57;52.61;99649.19;4341073;33;20032;-71
2022/09/06 10:56:07;;;;;;;2.45;1.17;;;;;;;21.04;52.98;99647.22;4338605;32;19939;-71
2022/09/06 10:58:42;;;;;;;3.17;1.00;;;;;;;20.46;52.27;99645.81;4355779;32;20101;-71
2022/09/06 11:01:18;;;;;;;8.75;0.90;;;;;;;20.10;51.78;99630.00;4354910;32;20058;-71
2022/09/06 11:03:45;;;;;;;0.70;0.70;;;;;;;20.84;52.66;99634.75;4339307;33;20422;-71
2022/09/06 11:06:12;;;;;;;2.95;1.30;;;;;;;20.88;50.35;99607.59;4338849;33;20088;-71
2022/09/06 11:08:47;;;;;;;8.68;1.00;;;;;;;21.02;48.27;99630.28;4339490;33;20046;-69
2022/09/06 11:11:22;;;;;;;2.92;1.17;;;;;;;20.75;48.83;99647.53;4337329;33;20044;-73
2022/09/06 11:13:48;;;;;;;3.67;0.98;;;;;;;20.84;51.44;99640.22;4350412;32;20367;-71
2022/09/06 11:16:27;;;;;;;4.47;1.48;;;;;;;20.94;52.06;99606.38;4355653;32;20057;-69
2022/09/06 11:19:03;;;;;;;2.95;1.12;;;;;;;21.22;50.65;99640.84;4337971;32;20053;-69
2022/09/06 11:21:42;;;;;;;1.52;0.90;;;;;;;20.87;48.87;99634.16;4340444;33;20623;-68
2022/09/06 11:24:53;;;;;;;6.68;1.60;;;;;;;21.58;47.81;99614.63;4340282;33;20032;-70
2022/09/06 11:27:35;;;;;;;3.65;1.15;;;;;;;22.76;46.56;99641.06;4317162;33;20067;-69
2022/09/06 11:30:04;;;;;;;3.00;1.02;;;;;;;23.20;45.67;99639.31;4338493;33;20120;-75
2022/09/06 11:32:50;;;;;;;1.12;0.90;;;;;;;21.93;45.90;99634.09;4310418;33;20072;-68
2022/09/06 11:35:23;;;;;;;11.15;1.27;;;;;;;22.14;45.71;99646.16;4311200;33;20037;-69
2022/09/06 11:38:02;;;;;;;3.50;1.08;;;;;;;21.59;46.91;99630.75;4307993;33;20041;-70
2022/09/06 11:40:37;;;;;;;3.53;1.10;;;;;;;21.79;45.52;99605.91;4310767;33;20055;-69
2022/09/06 11:43:03;;;;;;;4.10;1.37;;;;;;;21.64;47.15;99621.59;4321496;33;20112;-69
2022/09/06 11:45:47;;;;;;;1.60;1.20;;;;;;;21.82;47.47;99625.28;4323808;33;20331;-67